Time;durP1;ratioP1;P1;durP2;ratioP2;P2;SDS_P1;SDS_P2;PMS_P1;PMS_P2;Temp;Humidity;BMP_temperature;BMP_pressure;BME280_temperature;BME280_humidity;BME280_pressure;Samples;Min_cycle;Max_cycle;Signal;HPM_P1;HPM_P2
2020/12/18 00:00:54;;;;;;;;;;;5.90;99.90;;;;;;5135458;28;19932;-88
2020/12/18 00:03:28;;;;;;;;;;;5.90;99.90;;;;;;5118283;28;19995;-88
2020/12/18 00:05:57;;;;;;;;;;;5.90;99.90;;;;;;5136192;28;19920;-88
2020/12/18 00:08:28;;;;;;;;;;;5.90;99.90;;;;;;5120134;28;19907;-87
2020/12/18 00:10:58;;;;;;;;;;;5.90;99.90;;;;;;5119447;28;19907;-88
2020/12/18 00:13:29;;;;;;;;;;;5.90;99.90;;;;;;5133077;28;19908;-89
2020/12/18 00:16:05;;;;;;;;;;;5.90;99.90;;;;;;5135799;28;19938;-86
2020/12/18 00:18:33;;;;;;;;;;;5.90;99.90;;;;;;5132558;27;19916;-86
2020/12/18 00:21:03;;;;;;;;;;;5.90;99.90;;;;;;5139611;27;19933;-88
2020/12/18 00:23:31;;;;;;;;;;;5.90;99.90;;;;;;5117306;27;19957;-85
2020/12/18 00:26:02;;;;;;;;;;;5.80;99.90;;;;;;5117626;27;19912;-86
2020/12/18 00:28:40;;;;;;;;;;;5.80;99.90;;;;;;5139027;27;20431;-87
2020/12/18 00:31:07;;;;;;;;;;;5.70;99.90;;;;;;5139716;27;19907;-86
2020/12/18 00:33:40;;;;;;;;;;;5.70;99.90;;;;;;5120903;27;19998;-87
2020/12/18 00:36:09;;;;;;;;;;;5.60;99.90;;;;;;5120342;27;19965;-87
2020/12/18 00:38:41;;;;;;;;;;;5.50;99.90;;;;;;5139534;27;19915;-87
2020/12/18 00:41:12;;;;;;;;;;;5.50;99.90;;;;;;5120172;27;19929;-87
2020/12/18 00:43:41;;;;;;;;;;;5.50;99.90;;;;;;5120877;27;19918;-88
2020/12/18 00:46:30;;;;;;;;;;;5.50;99.90;;;;;;5137344;27;19994;-87
2020/12/18 00:48:59;;;;;;;;;;;5.60;99.90;;;;;;5121381;27;19932;-87
2020/12/18 00:51:29;;;;;;;;;;;5.60;99.90;;;;;;5117467;27;19916;-87
2020/12/18 00:54:00;;;;;;;;;;;5.50;99.90;;;;;;5120877;27;19908;-87
2020/12/18 00:56:28;;;;;;;;;;;5.50;99.90;;;;;;5135014;27;19919;-87
2020/12/18 00:59:22;;;;;;;;;;;5.50;99.90;;;;;;5117348;27;19907;-87
2020/12/18 01:02:11;;;;;;;;;;;5.50;99.90;;;;;;5138838;27;19963;-87
2020/12/18 01:04:39;;;;;;;;;;;5.50;99.90;;;;;;5119107;27;19915;-87
2020/12/18 01:07:13;;;;;;;;;;;5.60;99.90;;;;;;5138634;27;20295;-87
2020/12/18 01:09:43;;;;;;;;;;;5.50;99.90;;;;;;5117195;27;19912;-87
2020/12/18 01:12:24;;;;;;;;;;;5.60;99.90;;;;;;5117474;27;20322;-87
2020/12/18 01:14:54;;;;;;;;;;;5.70;99.90;;;;;;5119685;27;19912;-87
2020/12/18 01:17:20;;;;;;;;;;;5.70;99.90;;;;;;5116866;27;20284;-87
2020/12/18 01:19:58;;;;;;;;;;;5.80;99.90;;;;;;5135979;27;19911;-87
2020/12/18 01:22:34;;;;;;;;;;;5.80;99.90;;;;;;5120145;27;19956;-87
2020/12/18 01:25:09;;;;;;;;;;;5.80;99.90;;;;;;5119818;27;20002;-87
2020/12/18 01:27:47;;;;;;;;;;;5.80;99.90;;;;;;5093394;28;19908;-88
2020/12/18 01:30:27;;;;;;;;;;;5.70;99.90;;;;;;5077655;28;19912;-87
2020/12/18 01:32:55;;;;;;;;;;;5.70;99.90;;;;;;5077567;28;19908;-87
2020/12/18 01:35:30;;;;;;;;;;;5.70;99.90;;;;;;5075500;28;19923;-87
2020/12/18 01:37:58;;;;;;;;;;;5.70;99.90;;;;;;5078004;28;19991;-87
2020/12/18 01:40:41;;;;;;;;;;;5.70;99.90;;;;;;5092700;28;20051;-86
2020/12/18 01:43:28;;;;;;;;;;;5.50;99.90;;;;;;5096012;28;19916;-87
2020/12/18 01:46:00;;;;;;;;;;;5.50;99.90;;;;;;5080859;28;19908;-87
2020/12/18 01:48:39;;;;;;;;;;;5.50;99.90;;;;;;5096136;28;20349;-86
2020/12/18 01:51:11;;;;;;;;;;;5.50;99.90;;;;;;5077695;28;19955;-86
2020/12/18 01:53:49;;;;;;;;;;;5.50;99.90;;;;;;5095470;28;19908;-86
2020/12/18 01:56:18;;;;;;;;;;;5.50;99.90;;;;;;5076406;28;19923;-87
2020/12/18 01:58:51;;;;;;;;;;;5.50;99.90;;;;;;5102450;27;19907;-87
2020/12/18 02:01:24;;;;;;;;;;;5.40;99.90;;;;;;5119742;27;19988;-87
2020/12/18 02:03:53;;;;;;;;;;;5.40;99.90;;;;;;5116068;27;19915;-87
2020/12/18 02:06:25;;;;;;;;;;;5.40;99.90;;;;;;5117062;27;20253;-87
2020/12/18 02:08:56;;;;;;;;;;;5.40;99.90;;;;;;5119502;27;19908;-87
2020/12/18 02:11:27;;;;;;;;;;;5.50;99.90;;;;;;5119306;27;19914;-88
2020/12/18 02:14:01;;;;;;;;;;;5.50;99.90;;;;;;5119364;27;19994;-88
2020/12/18 02:16:43;;;;;;;;;;;5.60;99.90;;;;;;5119708;27;19915;-88
2020/12/18 02:19:20;;;;;;;;;;;5.50;99.90;;;;;;5119041;27;20348;-88
2020/12/18 02:21:45;;;;;;;;;;;5.50;99.90;;;;;;5137363;27;19911;-87
2020/12/18 02:24:32;;;;;;;;;;;5.50;99.90;;;;;;5116031;27;19960;-87
2020/12/18 02:27:09;;;;;;;;;;;5.50;99.90;;;;;;5118852;27;19952;-88
2020/12/18 02:29:37;;;;;;;;;;;5.60;99.90;;;;;;5117860;27;20351;-88
2020/12/18 02:32:11;;;;;;;;;;;5.60;99.90;;;;;;5119020;27;19929;-87
2020/12/18 02:34:46;;;;;;;;;;;5.60;99.90;;;;;;5116257;27;20303;-88
2020/12/18 02:37:23;;;;;;;;;;;5.60;99.90;;;;;;5115576;27;19919;-86
2020/12/18 02:40:01;;;;;;;;;;;5.60;99.90;;;;;;5118367;27;19971;-87
2020/12/18 02:42:30;;;;;;;;;;;5.60;99.90;;;;;;5136634;27;19912;-86
2020/12/18 02:45:04;;;;;;;;;;;5.50;99.90;;;;;;5115686;27;19915;-87
2020/12/18 02:47:38;;;;;;;;;;;5.50;99.90;;;;;;5117090;27;19969;-86
2020/12/18 02:50:06;;;;;;;;;;;5.40;99.90;;;;;;5118601;27;19954;-87
2020/12/18 02:52:34;;;;;;;;;;;5.50;99.90;;;;;;5118132;27;19914;-87
2020/12/18 02:55:02;;;;;;;;;;;5.50;99.90;;;;;;5112517;27;19919;-87
2020/12/18 02:57:33;;;;;;;;;;;5.40;99.90;;;;;;5130901;27;19907;-87
2020/12/18 03:00:04;;;;;;;;;;;5.40;99.90;;;;;;5117679;27;19911;-87
2020/12/18 03:02:41;;;;;;;;;;;5.20;99.90;;;;;;5117992;27;19923;-87
2020/12/18 03:05:09;;;;;;;;;;;5.20;99.90;;;;;;5134699;27;19914;-87
2020/12/18 03:07:50;;;;;;;;;;;5.10;99.90;;;;;;5136198;27;20426;-87
2020/12/18 03:10:26;;;;;;;;;;;5.20;99.90;;;;;;5135794;27;20283;-87
2020/12/18 03:13:00;;;;;;;;;;;5.10;99.90;;;;;;5117671;27;20348;-86
2020/12/18 03:15:33;;;;;;;;;;;5.00;99.90;;;;;;5118364;27;20360;-87
2020/12/18 03:18:08;;;;;;;;;;;5.00;99.90;;;;;;5136991;27;19956;-87
2020/12/18 03:20:40;;;;;;;;;;;5.10;99.90;;;;;;5115423;27;19912;-86
2020/12/18 03:23:15;;;;;;;;;;;5.10;99.90;;;;;;5135964;27;19918;-87
2020/12/18 03:25:43;;;;;;;;;;;5.10;99.90;;;;;;5117785;27;19908;-87
2020/12/18 03:28:20;;;;;;;;;;;5.10;99.90;;;;;;5132619;27;19911;-87
2020/12/18 03:30:48;;;;;;;;;;;5.10;99.90;;;;;;5133349;27;19918;-87
2020/12/18 03:33:18;;;;;;;;;;;5.00;99.90;;;;;;5117686;27;19907;-88
2020/12/18 03:35:46;;;;;;;;;;;5.00;99.90;;;;;;5117649;27;19915;-87
2020/12/18 03:38:17;;;;;;;;;;;5.00;99.90;;;;;;5117612;27;19908;-87
2020/12/18 03:40:48;;;;;;;;;;;4.90;99.90;;;;;;5111165;28;19920;-87
2020/12/18 03:43:14;;;;;;;;;;;4.90;99.90;;;;;;5098131;28;20360;-87
2020/12/18 03:45:41;;;;;;;;;;;4.80;99.90;;;;;;5097875;28;20360;-87
2020/12/18 03:48:07;;;;;;;;;;;4.80;99.90;;;;;;5110681;28;19908;-86
2020/12/18 03:50:39;;;;;;;;;;;4.80;99.90;;;;;;5115674;28;19915;-87
2020/12/18 03:53:08;;;;;;;;;;;4.80;99.90;;;;;;5110606;28;19907;-87
2020/12/18 03:55:44;;;;;;;;;;;4.80;99.90;;;;;;5093335;28;19920;-87
2020/12/18 03:58:12;;;;;;;;;;;4.80;99.90;;;;;;5115270;28;19912;-87
2020/12/18 04:00:51;;;;;;;;;;;4.80;99.90;;;;;;5092902;28;19908;-87
2020/12/18 04:03:24;;;;;;;;;;;4.90;99.90;;;;;;5094802;28;19912;-87
2020/12/18 04:05:55;;;;;;;;;;;4.90;99.90;;;;;;5092235;28;20275;-88
2020/12/18 04:08:28;;;;;;;;;;;4.90;99.90;;;;;;5111864;28;19912;-87
2020/12/18 04:10:59;;;;;;;;;;;5.00;99.90;;;;;;5092206;28;19912;-87
2020/12/18 04:13:34;;;;;;;;;;;5.10;99.90;;;;;;5093138;28;19973;-87
2020/12/18 04:16:10;;;;;;;;;;;5.10;99.90;;;;;;5115038;28;19964;-87
2020/12/18 04:18:38;;;;;;;;;;;5.10;99.90;;;;;;5096719;28;19915;-87
2020/12/18 04:21:12;;;;;;;;;;;5.10;99.90;;;;;;5112794;28;19916;-87
2020/12/18 04:23:40;;;;;;;;;;;5.00;99.90;;;;;;5114476;28;19915;-87
2020/12/18 04:26:12;;;;;;;;;;;4.90;99.90;;;;;;5096323;28;20006;-87
2020/12/18 04:28:40;;;;;;;;;;;4.90;99.90;;;;;;5091965;28;20309;-87
2020/12/18 04:31:05;;;;;;;;;;;4.90;99.90;;;;;;5110341;28;20279;-87
2020/12/18 04:33:36;;;;;;;;;;;5.00;99.90;;;;;;5091908;28;19908;-87
2020/12/18 04:36:18;;;;;;;;;;;5.00;99.90;;;;;;5114152;28;19923;-87
2020/12/18 04:38:43;;;;;;;;;;;5.00;99.90;;;;;;5115284;28;20070;-87
2020/12/18 04:41:27;;;;;;;;;;;5.00;99.90;;;;;;5109636;28;20018;-87
2020/12/18 04:44:03;;;;;;;;;;;5.10;99.90;;;;;;5116625;28;20002;-87
2020/12/18 04:46:34;;;;;;;;;;;5.10;99.90;;;;;;5113585;28;20363;-87
2020/12/18 04:49:02;;;;;;;;;;;5.10;99.90;;;;;;5134664;28;19937;-87
2020/12/18 04:51:36;;;;;;;;;;;5.00;99.90;;;;;;5111735;28;20288;-87
2020/12/18 04:54:14;;;;;;;;;;;;;;;;;;;;;
2020/12/18 04:56:51;;;;;;;;;;;5.00;99.90;;;;;;5133247;28;20385;-87
2020/12/18 04:59:21;;;;;;;;;;;5.00;99.90;;;;;;5116791;28;19952;-87
2020/12/18 05:02:05;;;;;;;;;;;5.00;99.90;;;;;;5113883;28;19957;-88
2020/12/18 05:04:34;;;;;;;;;;;5.10;99.90;;;;;;5116523;28;20002;-86
2020/12/18 05:07:12;;;;;;;;;;;5.10;99.90;;;;;;5119823;27;19915;-87
2020/12/18 05:09:38;;;;;;;;;;;5.10;99.90;;;;;;5138537;27;19907;-86
2020/12/18 05:12:11;;;;;;;;;;;5.10;99.90;;;;;;5117078;27;19998;-87
2020/12/18 05:14:40;;;;;;;;;;;5.10;99.90;;;;;;5138450;27;19908;-86
2020/12/18 05:17:12;;;;;;;;;;;5.00;99.90;;;;;;5120027;27;19919;-87
2020/12/18 05:19:59;;;;;;;;;;;5.10;99.90;;;;;;5119940;27;19908;-87
2020/12/18 05:22:32;;;;;;;;;;;5.00;99.90;;;;;;5120813;27;19911;-86
2020/12/18 05:25:03;;;;;;;;;;;4.90;99.90;;;;;;5136888;27;19958;-86
2020/12/18 05:27:54;;;;;;;;;;;4.80;99.90;;;;;;5137109;27;19914;-87
2020/12/18 05:30:23;;;;;;;;;;;4.70;99.90;;;;;;5118169;27;19911;-87
2020/12/18 05:32:56;;;;;;;;;;;4.60;99.90;;;;;;5120853;27;20037;-87
2020/12/18 05:35:34;;;;;;;;;;;4.50;99.90;;;;;;5117871;27;20424;-87
2020/12/18 05:38:03;;;;;;;;;;;4.40;99.90;;;;;;5138391;27;19918;-87
2020/12/18 05:40:36;;;;;;;;;;;4.30;99.90;;;;;;5117105;27;20014;-86
2020/12/18 05:43:14;;;;;;;;;;;4.30;99.90;;;;;;5120047;27;19918;-87
2020/12/18 05:45:53;;;;;;;;;;;4.40;99.90;;;;;;5120136;27;19966;-86
2020/12/18 05:48:19;;;;;;;;;;;4.30;99.90;;;;;;5120053;27;19915;-87
2020/12/18 05:50:58;;;;;;;;;;;4.30;99.90;;;;;;5135135;27;20056;-87
2020/12/18 05:53:31;;;;;;;;;;;4.20;99.90;;;;;;5115609;27;19911;-86
2020/12/18 05:56:23;;;;;;;;;;;4.20;99.90;;;;;;5119050;27;20367;-86
2020/12/18 05:58:52;;;;;;;;;;;4.20;99.90;;;;;;5118934;27;20376;-86
2020/12/18 06:01:25;;;;;;;;;;;4.20;99.90;;;;;;5125109;27;20356;-85
2020/12/18 06:04:03;;;;;;;;;;;4.10;99.90;;;;;;5121812;27;20019;-86
2020/12/18 06:06:35;;;;;;;;;;;4.10;99.90;;;;;;5137762;27;19907;-86
2020/12/18 06:09:11;;;;;;;;;;;4.10;99.90;;;;;;5119311;27;19918;-86
2020/12/18 06:11:42;;;;;;;;;;;4.10;99.90;;;;;;5119281;27;19907;-86
2020/12/18 06:14:12;;;;;;;;;;;4.30;99.90;;;;;;5135249;27;19918;-86
2020/12/18 06:16:43;;;;;;;;;;;4.40;99.90;;;;;;5119289;27;19915;-86
2020/12/18 06:19:15;;;;;;;;;;;4.40;99.90;;;;;;5137507;27;19955;-86
2020/12/18 06:22:00;;;;;;;;;;;4.40;99.90;;;;;;5142741;27;19941;-86
2020/12/18 06:24:30;;;;;;;;;;;4.50;99.90;;;;;;5117631;27;19919;-86
2020/12/18 06:26:58;;;;;;;;;;;4.60;99.90;;;;;;5115624;27;19912;-86
2020/12/18 06:29:29;;;;;;;;;;;4.60;99.90;;;;;;5117388;27;20128;-86
2020/12/18 06:32:17;;;;;;;;;;;4.70;99.90;;;;;;5136788;27;19914;-85
2020/12/18 06:34:44;;;;;;;;;;;4.70;99.90;;;;;;5118009;27;19959;-86
2020/12/18 06:37:34;;;;;;;;;;;4.80;99.90;;;;;;5154746;27;19915;-85
2020/12/18 06:40:05;;;;;;;;;;;4.80;99.90;;;;;;5156589;27;19926;-85
2020/12/18 06:42:58;;;;;;;;;;;4.80;99.90;;;;;;5141759;27;20303;-84
2020/12/18 06:45:30;;;;;;;;;;;5.00;99.90;;;;;;5152736;27;19907;-85
2020/12/18 06:47:58;;;;;;;;;;;5.10;99.90;;;;;;5159251;27;19950;-85
2020/12/18 06:50:36;;;;;;;;;;;5.20;99.90;;;;;;5173659;27;19906;-85
2020/12/18 06:53:16;;;;;;;;;;;5.20;99.90;;;;;;5159185;27;19959;-85
2020/12/18 06:55:47;;;;;;;;;;;5.30;99.90;;;;;;5155782;27;19922;-86
2020/12/18 06:58:19;;;;;;;;;;;5.30;99.90;;;;;;5159200;27;19910;-85
2020/12/18 07:00:56;;;;;;;;;;;5.40;99.90;;;;;;5159663;27;19959;-85
2020/12/18 07:03:42;;;;;;;;;;;5.40;99.90;;;;;;5159193;27;19907;-85
2020/12/18 07:06:11;;;;;;;;;;;5.50;99.90;;;;;;5159393;27;19997;-86
2020/12/18 07:08:45;;;;;;;;;;;5.50;99.90;;;;;;5159726;27;20351;-86
2020/12/18 07:11:19;;;;;;;;;;;5.40;99.90;;;;;;5178683;27;19907;-86
2020/12/18 07:13:50;;;;;;;;;;;5.30;99.90;;;;;;5157876;27;19952;-85
2020/12/18 07:16:40;;;;;;;;;;;5.30;99.90;;;;;;5124776;27;20437;-86
2020/12/18 07:19:11;;;;;;;;;;;5.30;99.90;;;;;;5116730;27;19962;-85
2020/12/18 07:21:50;;;;;;;;;;;5.30;99.90;;;;;;5118020;27;19912;-85
2020/12/18 07:24:19;;;;;;;;;;;5.30;99.90;;;;;;5116391;27;20005;-85
2020/12/18 07:26:49;;;;;;;;;;;5.30;99.90;;;;;;5114726;27;19912;-85
2020/12/18 07:29:21;;;;;;;;;;;5.30;99.90;;;;;;5116215;27;19908;-86
2020/12/18 07:32:10;;;;;;;;;;;5.30;99.90;;;;;;5134066;27;20363;-86
2020/12/18 07:34:40;;;;;;;;;;;5.30;99.90;;;;;;5135655;27;20264;-86
2020/12/18 07:37:13;;;;;;;;;;;5.30;99.90;;;;;;5133770;27;19926;-85
2020/12/18 07:39:41;;;;;;;;;;;5.30;99.90;;;;;;5135490;27;19914;-85
2020/12/18 07:42:10;;;;;;;;;;;5.30;99.90;;;;;;5135836;27;19919;-86
2020/12/18 07:44:46;;;;;;;;;;;5.30;99.90;;;;;;5135922;27;19912;-85
2020/12/18 07:47:14;;;;;;;;;;;5.30;99.90;;;;;;5113573;27;19908;-85
2020/12/18 07:49:50;;;;;;;;;;;5.30;99.90;;;;;;5146775;27;19918;-85
2020/12/18 07:52:26;;;;;;;;;;;5.30;99.90;;;;;;5137258;27;19945;-85
2020/12/18 07:54:58;;;;;;;;;;;5.40;99.90;;;;;;5137523;27;19921;-85
2020/12/18 07:57:25;;;;;;;;;;;5.40;99.90;;;;;;5137887;27;19961;-85
2020/12/18 08:00:13;;;;;;;;;;;5.40;99.90;;;;;;5147776;27;19911;-85
2020/12/18 08:02:39;;;;;;;;;;;5.40;99.90;;;;;;5156444;27;19963;-86
2020/12/18 08:05:12;;;;;;;;;;;5.50;99.90;;;;;;5138057;27;19960;-85
2020/12/18 08:07:46;;;;;;;;;;;5.50;99.90;;;;;;5153231;27;20012;-86
2020/12/18 08:10:20;;;;;;;;;;;5.60;99.90;;;;;;5137641;27;19907;-86
2020/12/18 08:12:54;;;;;;;;;;;5.80;99.90;;;;;;5138720;27;20279;-86
2020/12/18 08:15:30;;;;;;;;;;;5.90;99.90;;;;;;5138514;27;19919;-86
2020/12/18 08:18:01;;;;;;;;;;;6.00;99.90;;;;;;5156692;27;19907;-86
2020/12/18 08:20:32;;;;;;;;;;;6.10;99.90;;;;;;5150850;27;20026;-85
2020/12/18 08:23:02;;;;;;;;;;;6.10;99.90;;;;;;5137642;27;19907;-86
2020/12/18 08:25:38;;;;;;;;;;;6.20;99.90;;;;;;5155247;27;19907;-85
2020/12/18 08:28:08;;;;;;;;;;;6.20;99.90;;;;;;5152932;27;19918;-86
2020/12/18 08:30:37;;;;;;;;;;;6.30;99.90;;;;;;5137447;27;19953;-86
2020/12/18 08:33:05;;;;;;;;;;;6.40;99.90;;;;;;5152340;27;20323;-85
2020/12/18 08:35:33;;;;;;;;;;;6.50;99.90;;;;;;5130891;27;20274;-85
2020/12/18 08:38:11;;;;;;;;;;;6.50;99.90;;;;;;5136818;27;20325;-85
2020/12/18 08:40:43;;;;;;;;;;;6.60;99.90;;;;;;5137674;27;19919;-86
2020/12/18 08:43:17;;;;;;;;;;;6.70;99.90;;;;;;5160317;27;19908;-87
2020/12/18 08:45:49;;;;;;;;;;;6.80;99.90;;;;;;5141236;27;20396;-85
2020/12/18 08:48:21;;;;;;;;;;;6.90;99.90;;;;;;5138400;27;19911;-86
2020/12/18 08:50:47;;;;;;;;;;;7.00;99.90;;;;;;5141204;27;19918;-86
2020/12/18 08:53:23;;;;;;;;;;;7.10;99.90;;;;;;5144027;27;20010;-86
2020/12/18 08:55:49;;;;;;;;;;;7.10;99.90;;;;;;5163627;27;20442;-86
2020/12/18 08:58:14;;;;;;;;;;;7.20;99.90;;;;;;5140599;27;19946;-86
2020/12/18 09:00:49;;;;;;;;;;;7.20;99.90;;;;;;5141213;27;19918;-86
2020/12/18 09:03:14;;;;;;;;;;;7.30;99.90;;;;;;5140724;27;20266;-87
2020/12/18 09:05:48;;;;;;;;;;;7.30;99.90;;;;;;5137147;27;20485;-86
2020/12/18 09:08:24;;;;;;;;;;;7.40;99.90;;;;;;5128328;27;19911;-86
2020/12/18 09:11:01;;;;;;;;;;;7.40;99.90;;;;;;5120285;27;19916;-86
2020/12/18 09:13:47;;;;;;;;;;;7.40;99.90;;;;;;5147455;27;19907;-86
2020/12/18 09:16:23;;;;;;;;;;;7.50;99.90;;;;;;5145923;27;19923;-85
2020/12/18 09:18:59;;;;;;;;;;;7.50;99.90;;;;;;5146428;27;19984;-85
2020/12/18 09:21:28;;;;;;;;;;;7.60;99.90;;;;;;5129029;27;20403;-86
2020/12/18 09:23:56;;;;;;;;;;;7.60;99.90;;;;;;5144037;27;19912;-87
2020/12/18 09:26:31;;;;;;;;;;;7.70;99.90;;;;;;5071496;28;20007;-86
2020/12/18 09:29:16;;;;;;;;;;;7.70;99.90;;;;;;5093606;28;20308;-86
2020/12/18 09:31:45;;;;;;;;;;;7.80;99.90;;;;;;5088167;28;19954;-86
2020/12/18 09:34:13;;;;;;;;;;;7.80;99.90;;;;;;5057944;28;19996;-86
2020/12/18 09:36:49;;;;;;;;;;;7.90;99.90;;;;;;5057340;28;20369;-86
2020/12/18 09:39:20;;;;;;;;;;;7.90;99.90;;;;;;5071523;28;19943;-86
2020/12/18 09:41:52;;;;;;;;;;;7.90;99.90;;;;;;5070035;28;20365;-86
2020/12/18 09:44:23;;;;;;;;;;;7.90;99.90;;;;;;5071514;28;19916;-86
2020/12/18 09:46:53;;;;;;;;;;;8.00;99.90;;;;;;5087706;28;19916;-86
2020/12/18 09:49:22;;;;;;;;;;;8.00;99.90;;;;;;5066847;28;19981;-86
2020/12/18 09:51:50;;;;;;;;;;;8.10;99.90;;;;;;5077943;28;19930;-86
2020/12/18 09:54:26;;;;;;;;;;;8.20;99.90;;;;;;5097682;28;19911;-86
2020/12/18 09:56:59;;;;;;;;;;;8.20;99.90;;;;;;5117575;27;20355;-87
2020/12/18 09:59:27;;;;;;;;;;;8.30;99.90;;;;;;5160595;27;19914;-85
2020/12/18 10:02:16;;;;;;;;;;;8.30;99.90;;;;;;5177683;27;19930;-87
2020/12/18 10:04:47;;;;;;;;;;;8.40;99.90;;;;;;5179152;27;19993;-87
2020/12/18 10:07:20;;;;;;;;;;;8.40;99.90;;;;;;5160272;27;19999;-88
2020/12/18 10:09:48;;;;;;;;;;;8.50;99.90;;;;;;5191503;27;19915;-86
2020/12/18 10:12:23;;;;;;;;;;;8.60;99.90;;;;;;5170916;27;19946;-87
2020/12/18 10:14:54;;;;;;;;;;;8.70;99.90;;;;;;5139882;27;19939;-87
2020/12/18 10:17:24;;;;;;;;;;;8.70;99.90;;;;;;5134113;27;19926;-87
2020/12/18 10:19:55;;;;;;;;;;;8.70;99.90;;;;;;5135922;27;19921;-87
2020/12/18 10:22:26;;;;;;;;;;;8.70;99.90;;;;;;5136572;27;19961;-86
2020/12/18 10:24:55;;;;;;;;;;;8.80;99.90;;;;;;5154673;27;19915;-86
2020/12/18 10:27:24;;;;;;;;;;;8.90;99.90;;;;;;5137926;27;20300;-86
2020/12/18 10:30:01;;;;;;;;;;;9.00;99.90;;;;;;5139033;27;20263;-86
2020/12/18 10:32:28;;;;;;;;;;;9.20;99.90;;;;;;5136011;27;19915;-86
2020/12/18 10:35:05;;;;;;;;;;;9.40;99.90;;;;;;5157341;27;19911;-86
2020/12/18 10:37:44;;;;;;;;;;;9.60;99.90;;;;;;5138948;27;19969;-86
2020/12/18 10:40:12;;;;;;;;;;;9.70;99.90;;;;;;5149131;27;19981;-87
2020/12/18 10:42:45;;;;;;;;;;;9.70;99.90;;;;;;5130326;27;19944;-86
2020/12/18 10:45:14;;;;;;;;;;;9.70;99.90;;;;;;5132494;27;19911;-86
2020/12/18 10:47:42;;;;;;;;;;;9.60;99.90;;;;;;5084730;28;19926;-86
2020/12/18 10:50:13;;;;;;;;;;;9.70;99.90;;;;;;5096328;28;19938;-86
2020/12/18 10:52:45;;;;;;;;;;;9.80;99.90;;;;;;5042373;28;19924;-87
2020/12/18 10:55:20;;;;;;;;;;;9.80;99.90;;;;;;5050115;28;19916;-87
2020/12/18 10:57:48;;;;;;;;;;;9.90;99.90;;;;;;5041437;28;20366;-87
2020/12/18 11:00:16;;;;;;;;;;;9.90;99.90;;;;;;5036274;28;20337;-87
2020/12/18 11:02:53;;;;;;;;;;;10.10;99.90;;;;;;5003405;28;19913;-87
2020/12/18 11:05:18;;;;;;;;;;;10.20;99.90;;;;;;5034026;28;19919;-86
2020/12/18 11:07:57;;;;;;;;;;;10.70;99.90;;;;;;5036231;28;20003;-86
2020/12/18 11:10:30;;;;;;;;;;;11.60;99.90;;;;;;5053245;28;19913;-87
2020/12/18 11:13:01;;;;;;;;;;;12.50;99.90;;;;;;5035780;28;19909;-87
2020/12/18 11:15:27;;;;;;;;;;;13.30;99.90;;;;;;5037784;28;20345;-86
2020/12/18 11:17:56;;;;;;;;;;;13.90;99.90;;;;;;5046121;28;20007;-88
2020/12/18 11:20:43;;;;;;;;;;;14.40;99.90;;;;;;5088753;28;19947;-86
2020/12/18 11:23:11;;;;;;;;;;;14.90;99.90;;;;;;5092706;27;19964;-85
2020/12/18 11:25:43;;;;;;;;;;;15.30;95.40;;;;;;5135371;27;19907;-86
2020/12/18 11:28:15;;;;;;;;;;;15.70;92.50;;;;;;5114157;27;19912;-86
2020/12/18 11:30:44;;;;;;;;;;;15.90;90.50;;;;;;5116792;27;19918;-86
2020/12/18 11:33:25;;;;;;;;;;;16.10;91.10;;;;;;5114179;27;19915;-86
2020/12/18 11:35:57;;;;;;;;;;;16.50;91.50;;;;;;5135066;27;19920;-85
2020/12/18 11:38:29;;;;;;;;;;;16.80;91.20;;;;;;5117126;27;20311;-86
2020/12/18 11:41:01;;;;;;;;;;;17.00;87.90;;;;;;5113855;27;19924;-87
2020/12/18 11:43:32;;;;;;;;;;;17.10;81.50;;;;;;5135078;27;19911;-83
2020/12/18 11:46:06;;;;;;;;;;;17.00;80.10;;;;;;5134735;27;19954;-84
2020/12/18 11:48:40;;;;;;;;;;;17.30;77.50;;;;;;5116737;27;19935;-84
2020/12/18 11:51:09;;;;;;;;;;;17.40;80.00;;;;;;5133652;27;19914;-84
2020/12/18 11:53:48;;;;;;;;;;;17.70;76.50;;;;;;5116416;27;19915;-85
2020/12/18 11:56:18;;;;;;;;;;;17.80;75.30;;;;;;5133488;27;19919;-85
2020/12/18 11:58:57;;;;;;;;;;;18.00;75.60;;;;;;5132588;27;19912;-84
2020/12/18 12:01:27;;;;;;;;;;;18.20;71.90;;;;;;5135199;27;19914;-84
2020/12/18 12:04:16;;;;;;;;;;;18.00;72.30;;;;;;5133658;27;19907;-84
2020/12/18 12:06:44;;;;;;;;;;;18.10;71.20;;;;;;5114958;28;20002;-84
2020/12/18 12:09:19;;;;;;;;;;;18.20;69.70;;;;;;5134732;27;20257;-85
2020/12/18 12:11:53;;;;;;;;;;;18.30;71.40;;;;;;5113415;28;19908;-84
2020/12/18 12:14:29;;;;;;;;;;;18.40;69.60;;;;;;5116621;27;19964;-85
2020/12/18 12:16:58;;;;;;;;;;;18.50;67.80;;;;;;5118428;27;20368;-85
2020/12/18 12:19:31;;;;;;;;;;;18.40;67.70;;;;;;5120658;27;19939;-85
2020/12/18 12:22:00;;;;;;;;;;;18.40;68.60;;;;;;5135533;27;20423;-85
2020/12/18 12:24:42;;;;;;;;;;;18.30;67.70;;;;;;5134453;27;19907;-84
2020/12/18 12:27:11;;;;;;;;;;;18.40;69.40;;;;;;5121409;27;19999;-86
2020/12/18 12:29:40;;;;;;;;;;;18.40;67.50;;;;;;5120912;27;19912;-86
2020/12/18 12:32:11;;;;;;;;;;;18.50;68.20;;;;;;5138911;27;19908;-86
2020/12/18 12:35:03;;;;;;;;;;;18.60;68.40;;;;;;5145286;27;20268;-86
2020/12/18 12:37:32;;;;;;;;;;;18.30;68.50;;;;;;5129497;27;19923;-85
2020/12/18 12:40:05;;;;;;;;;;;18.40;68.80;;;;;;5128691;27;19947;-86
2020/12/18 12:42:36;;;;;;;;;;;18.40;66.70;;;;;;5155815;27;19923;-86
2020/12/18 12:45:07;;;;;;;;;;;18.40;67.00;;;;;;5141195;27;19962;-85
2020/12/18 12:47:36;;;;;;;;;;;18.50;66.40;;;;;;5141918;27;19907;-86
2020/12/18 12:50:05;;;;;;;;;;;18.70;64.60;;;;;;5140785;27;20045;-86
2020/12/18 12:52:37;;;;;;;;;;;18.60;64.90;;;;;;5160195;27;19957;-86
2020/12/18 12:55:20;;;;;;;;;;;18.70;65.60;;;;;;5137865;27;19911;-85
2020/12/18 12:58:01;;;;;;;;;;;18.90;66.20;;;;;;5143671;27;19915;-86
2020/12/18 13:00:28;;;;;;;;;;;18.90;63.70;;;;;;5140563;27;19907;-86
2020/12/18 13:03:03;;;;;;;;;;;18.80;63.10;;;;;;5158852;27;19907;-86
2020/12/18 13:05:51;;;;;;;;;;;18.50;63.00;;;;;;5157443;27;20371;-86
2020/12/18 13:08:27;;;;;;;;;;;18.30;64.40;;;;;;5156025;27;20284;-85
2020/12/18 13:10:53;;;;;;;;;;;18.20;64.20;;;;;;5138754;27;19911;-85
2020/12/18 13:13:21;;;;;;;;;;;18.20;64.10;;;;;;5119581;27;19907;-85
2020/12/18 13:15:52;;;;;;;;;;;18.10;63.90;;;;;;5116096;27;20436;-84
2020/12/18 13:18:21;;;;;;;;;;;18.10;64.90;;;;;;5115676;27;19990;-85
2020/12/18 13:20:58;;;;;;;;;;;17.90;65.20;;;;;;5134779;27;19921;-90
2020/12/18 13:23:30;;;;;;;;;;;17.90;65.70;;;;;;5140230;27;19943;-84
2020/12/18 13:25:59;;;;;;;;;;;17.50;66.40;;;;;;5158857;27;20344;-87
2020/12/18 13:28:34;;;;;;;;;;;16.80;68.80;;;;;;5137513;27;19911;-86
2020/12/18 13:31:14;;;;;;;;;;;16.30;71.30;;;;;;5140979;27;20352;-84
2020/12/18 13:33:49;;;;;;;;;;;16.10;72.40;;;;;;5159005;27;20285;-86
2020/12/18 13:36:26;;;;;;;;;;;15.80;73.20;;;;;;5140453;27;19915;-86
2020/12/18 13:38:58;;;;;;;;;;;15.20;74.20;;;;;;5140665;27;19991;-84
2020/12/18 13:41:26;;;;;;;;;;;14.60;76.10;;;;;;5141200;27;20009;-88
2020/12/18 13:44:06;;;;;;;;;;;14.10;77.80;;;;;;5139706;27;19967;-85
2020/12/18 13:46:46;;;;;;;;;;;13.60;79.40;;;;;;5096886;28;20400;-92
2020/12/18 13:49:16;;;;;;;;;;;13.10;82.00;;;;;;5078550;28;19915;-84
2020/12/18 13:51:49;;;;;;;;;;;12.80;83.90;;;;;;5075277;28;19912;-85
2020/12/18 13:54:18;;;;;;;;;;;12.60;84.80;;;;;;5077585;28;19912;-85
2020/12/18 13:56:47;;;;;;;;;;;12.40;85.40;;;;;;5072621;28;19916;-85
2020/12/18 13:59:36;;;;;;;;;;;12.20;86.10;;;;;;5092992;28;19916;-86
2020/12/18 14:02:11;;;;;;;;;;;12.00;88.10;;;;;;5073442;28;19908;-85
2020/12/18 14:04:43;;;;;;;;;;;11.90;88.90;;;;;;5092449;28;19922;-85
2020/12/18 14:07:15;;;;;;;;;;;11.70;90.00;;;;;;5074387;28;20384;-85
2020/12/18 14:09:50;;;;;;;;;;;11.60;90.50;;;;;;5075921;28;20389;-85
2020/12/18 14:12:16;;;;;;;;;;;11.50;91.30;;;;;;5086137;28;19919;-85
2020/12/18 14:14:45;;;;;;;;;;;11.30;92.10;;;;;;5106895;28;19908;-85
2020/12/18 14:17:20;;;;;;;;;;;11.20;92.90;;;;;;5106803;27;19927;-84
2020/12/18 14:20:11;;;;;;;;;;;11.10;94.00;;;;;;5135435;27;19915;-84
2020/12/18 14:22:45;;;;;;;;;;;10.90;95.10;;;;;;5116874;27;20387;-85
2020/12/18 14:25:18;;;;;;;;;;;10.80;96.60;;;;;;5119212;27;19949;-85
2020/12/18 14:27:47;;;;;;;;;;;10.70;97.70;;;;;;5118765;27;19956;-85
2020/12/18 14:30:29;;;;;;;;;;;10.60;99.90;;;;;;5136745;27;19919;-85
2020/12/18 14:32:57;;;;;;;;;;;10.50;99.90;;;;;;5113738;27;20249;-85
2020/12/18 14:35:28;;;;;;;;;;;10.40;99.90;;;;;;5118947;27;19908;-85
2020/12/18 14:38:02;;;;;;;;;;;10.30;99.90;;;;;;5115261;28;19961;-85
2020/12/18 14:40:32;;;;;;;;;;;10.20;99.90;;;;;;5118071;27;19922;-86
2020/12/18 14:43:10;;;;;;;;;;;10.10;99.90;;;;;;5135443;27;20017;-85
2020/12/18 14:45:38;;;;;;;;;;;10.10;99.90;;;;;;5137247;27;19907;-85
2020/12/18 14:48:08;;;;;;;;;;;10.00;99.90;;;;;;5136201;27;19907;-85
2020/12/18 14:50:50;;;;;;;;;;;10.00;99.90;;;;;;5115226;27;19923;-85
2020/12/18 14:53:19;;;;;;;;;;;10.00;99.90;;;;;;5133058;27;19916;-85
2020/12/18 14:55:48;;;;;;;;;;;9.90;99.90;;;;;;5118105;27;20362;-85
2020/12/18 14:58:23;;;;;;;;;;;9.90;99.90;;;;;;5136030;27;20367;-85
2020/12/18 15:00:48;;;;;;;;;;;9.80;99.90;;;;;;5116787;27;20360;-85
2020/12/18 15:03:16;;;;;;;;;;;9.70;99.90;;;;;;5118265;27;19957;-85